Blackburn, North Carolina
Current Conditions -  °F | °C
As of 3:53 PM on Saturday 22 Nov 2014 (Local Time) from KHKY Reporting Station
Few Clouds Few Clouds  
Wind Chill: 51°   Ceiling: Unl
Heat Index: 51°   Visibility: 10mi
Dew Point: 17°   Wind: 3mph
Humidity: 26%   Direction: 190°S
Pressure: 30.36"   Gusts: NA
Location:  35.6271°N, 81.2599°W
Report Text: KHKY 222053Z AUTO 19003KT 10SM FEW043 11/M08 A3036 RMK AO2 SLP277 T01061083 56019
Loading
Personal Weather Stations






























Interactive Weather Map New forecast layout! Learn more

10-Day Weather Forecast

Advertisements
Track Severe Weather on mobile